Date,TemperatureHighF,TemperatureAvgF,TemperatureLowF,DewpointHighF,DewpointAvgF,DewpointLowF,HumidityHigh,HumidityAvg,HumidityLow,PressureMaxIn,PressureMinIn,WindSpeedMaxMPH,WindSpeedAvgMPH,GustSpeedMaxMPH,PrecipitationSumIn
2013-1-1,33.3,23.4,9.3,23.9,12.2,-2.5,74,62,49,30.16,29.83,11,5,18,0.00
2013-1-2,24.3,17.9,10.8,16.5,10.5,2.6,76,72,69,30.05,29.91,5,2,8,0.00
2013-1-3,27.5,18.0,9.1,19.6,9.2,-0.4,74,68,64,30.04,29.91,7,2,11,0.00
2013-1-4,36.7,30.1,24.1,24.5,19.1,14.0,70,63,50,29.94,29.82,13,5,24,0.06
2013-1-5,35.8,31.3,26.6,23.8,20.6,15.4,73,64,54,30.03,29.12,10,2,19,0.04
2013-1-6,38.8,33.5,27.3,28.7,25.4,19.7,81,72,63,29.35,29.15,10,2,17,0.02
2013-1-7,34.7,26.9,20.5,28.2,18.0,12.6,77,69,60,29.66,29.33,11,3,18,0.00
2013-1-8,43.5,29.3,20.1,24.2,16.6,10.6,71,59,44,29.59,29.44,5,1,10,0.00
2013-1-9,48.7,35.0,22.6,33.2,23.5,13.2,72,63,53,29.56,29.21,15,4,35,0.00
2013-1-10,43.2,36.3,29.7,28.6,24.6,21.2,76,63,53,29.85,29.55,15,3,23,0.00
2013-1-11,41.2,36.8,31.3,33.3,28.6,23.9,82,72,61,29.71,29.20,11,4,21,0.14
2013-1-12,52.9,42.8,36.1,43.4,37.1,30.7,88,80,69,29.30,29.25,6,2,10,0.00
2013-1-13,60.1,50.0,42.6,50.7,44.1,38.9,88,80,67,29.28,29.07,8,3,17,0.01
2013-1-14,51.6,37.2,28.7,45.8,27.4,17.6,83,68,55,29.67,29.05,16,4,27,0.00
2013-1-15,36.1,29.4,27.0,20.7,16.8,14.2,65,59,45,29.67,29.47,7,2,11,0.00
2013-1-16,39.6,31.0,27.7,28.1,22.2,17.6,76,70,54,29.47,29.06,7,2,17,0.00
2013-1-17,34.7,25.6,16.9,25.6,13.8,5.8,73,61,50,29.46,29.13,15,4,24,0.00
2013-1-18,27.3,20.2,8.8,12.0,6.3,-0.5,71,55,37,29.68,29.33,11,3,20,0.01
2013-1-19,48.6,40.6,27.3,29.6,22.5,12.0,57,48,38,29.32,28.91,10,3,22,0.00
2013-1-20,46.4,44.2,39.9,34.2,26.6,22.9,76,51,42,28.91,28.74,16,6,32,0.02
2013-1-21,22.6,19.3,14.0,8.8,5.2,0.5,63,54,45,29.27,29.12,9,3,17,0.00
2013-1-22,17.6,11.1,6.1,0.9,-8.3,-15.0,56,41,25,29.42,29.15,14,5,23,0.00
2013-1-23,11.3,5.5,-1.8,1.2,-6.9,-14.0,64,56,45,29.48,29.37,9,2,15,0.00
2013-1-24,15.3,6.3,-2.6,4.9,-6.1,-14.4,67,56,45,29.74,29.36,13,3,23,0.00
2013-1-25,18.7,11.4,3.4,4.1,-0.1,-6.3,66,59,47,29.73,29.35,5,2,12,0.00
2013-1-26,23.9,13.4,2.1,11.6,2.5,-7.8,67,62,46,29.65,29.35,7,1,12,0.00
2013-1-27,30.4,20.6,14.9,13.8,8.3,4.2,70,59,43,29.82,29.64,8,2,10,0.01
2013-1-28,41.0,31.1,19.9,38.0,24.1,10.4,90,75,57,29.66,29.14,10,3,17,0.15
2013-1-29,49.6,39.3,31.6,46.8,36.2,28.2,91,89,85,29.35,29.08,8,2,17,0.39
2013-1-30,62.2,55.1,48.0,52.0,47.3,44.1,90,75,62,29.08,28.37,14,5,22,0.11
2013-1-31,53.5,31.9,21.0,48.4,20.2,6.9,84,62,41,28.97,28.33,17,7,33,0.07
2013-2-1,25.2,19.6,14.4,12.3,7.0,0.2,72,58,43,29.44,28.97,14,5,24,0.00
2013-2-2,22.8,17.2,12.7,10.4,4.5,0.1,66,57,46,29.45,29.24,8,2,16,0.00
2013-2-3,28.8,19.0,10.9,17.7,7.5,2.5,71,61,41,29.24,29.05,9,2,17,0.00
2013-2-4,26.4,19.6,15.1,8.4,5.3,2.5,67,53,38,29.21,29.11,10,4,19,0.00
2013-2-5,28.0,21.3,12.2,13.4,9.1,3.5,68,59,44,29.25,29.12,6,1,10,0.00
2013-2-6,26.6,22.7,14.7,19.9,9.6,1.3,77,57,36,29.65,29.14,15,4,25,0.00
2013-2-7,32.0,23.2,12.9,18.8,9.1,1.8,66,55,45,29.71,29.38,10,3,17,0.00
2013-2-8,35.8,29.6,18.9,30.4,21.5,12.0,84,72,53,29.39,29.01,9,2,20,0.01
2013-2-9,21.4,16.8,8.2,15.0,9.9,-0.1,78,74,68,29.68,29.31,5,0,17,0.01
2013-2-10,36.0,20.7,3.6,24.0,11.6,-4.9,76,67,59,29.68,29.28,10,2,16,0.00
2013-2-11,49.9,37.2,31.8,35.8,26.2,20.3,75,64,56,29.28,28.87,15,5,27,0.18
2013-2-12,36.1,32.6,30.2,26.8,22.8,19.9,82,67,55,29.24,28.99,14,5,27,0.01
2013-2-13,43.5,31.8,22.6,23.3,19.8,14.7,75,62,42,29.20,29.01,7,1,8,0.00
2013-2-14,42.1,31.9,20.1,29.7,23.1,14.1,83,70,51,29.21,29.08,8,2,11,0.08
2013-2-15,42.1,34.3,25.0,31.1,21.6,10.3,83,60,44,29.33,29.07,12,4,24,0.09
2013-2-16,32.2,23.4,18.3,16.8,10.5,4.5,68,57,45,29.33,29.20,8,2,13,0.00
2013-2-17,20.5,15.1,11.7,9.9,4.2,-3.4,70,62,45,29.42,29.17,13,5,23,0.01
2013-2-18,32.9,20.1,10.0,13.3,7.3,0.7,70,58,38,29.55,29.24,11,3,17,0.01
2013-2-19,42.1,32.8,25.3,31.8,20.7,10.9,77,61,47,29.24,28.84,10,3,17,0.05
2013-2-20,26.2,22.6,19.2,15.8,9.4,5.7,73,57,44,29.30,29.03,15,5,27,0.01
2013-2-21,20.5,17.2,13.5,11.3,6.5,0.9,72,62,51,29.67,29.27,14,5,32,0.00
2013-2-22,34.5,26.7,17.6,24.1,16.9,7.5,75,66,54,29.70,29.32,11,3,20,0.00
2013-2-23,40.6,34.5,31.1,31.6,26.1,21.9,77,71,65,29.32,29.16,8,3,16,0.05
2013-2-24,34.0,31.0,29.1,25.5,21.7,19.7,77,68,59,29.33,29.13,9,3,15,0.01
2013-2-25,39.0,32.5,26.8,24.7,22.5,18.7,75,67,51,29.53,29.33,8,2,13,0.00
2013-2-26,45.0,33.7,22.3,28.1,23.4,16.2,83,67,46,29.53,29.16,11,3,20,0.01
2013-2-27,37.6,33.3,32.2,33.6,28.9,27.6,86,84,80,29.16,28.86,5,0,11,0.48
2013-2-28,42.6,34.9,31.8,33.1,29.1,26.3,86,80,63,29.00,28.83,7,2,13,0.37
2013-3-1,32.7,29.5,26.1,28.7,22.7,16.4,85,76,63,29.19,29.00,6,0,8,0.01
2013-3-2,26.1,24.1,22.5,19.9,16.2,14.0,77,72,62,29.21,29.14,9,3,15,0.00
2013-3-3,26.2,22.6,19.9,16.1,13.6,10.5,76,68,54,29.16,29.11,10,3,15,0.00
2013-3-4,32.3,25.4,20.7,17.5,14.3,11.6,74,62,52,29.31,29.15,12,6,26,0.00
2013-3-5,33.8,26.5,20.3,20.3,16.4,13.1,76,65,56,29.37,29.26,8,2,14,0.02
2013-3-6,44.1,32.4,19.8,28.7,23.3,13.1,76,69,51,29.42,29.24,9,2,19,0.00
2013-3-7,37.6,34.0,30.6,28.3,24.0,19.5,77,67,52,29.56,29.41,9,3,16,0.00
2013-3-8,41.9,32.9,27.1,22.1,19.6,16.5,76,58,43,29.68,29.53,11,4,20,0.06
2013-3-9,52.2,35.2,24.1,30.8,22.3,16.4,81,61,36,29.69,29.54,6,2,9,0.00
2013-3-10,61.7,45.5,30.0,30.9,26.3,20.2,67,49,27,29.54,29.30,8,3,14,0.00
2013-3-11,53.6,49.0,45.9,34.7,30.0,26.1,52,48,44,29.32,29.01,12,4,25,0.02
2013-3-12,53.8,41.5,33.1,44.5,33.8,23.7,88,75,61,29.21,28.99,13,4,23,0.20
2013-3-13,42.4,32.5,23.6,33.4,21.7,13.4,84,64,45,29.21,29.11,15,4,30,0.06
2013-3-14,35.2,25.4,18.1,16.4,8.0,1.2,72,49,27,29.32,29.20,17,8,31,0.01
2013-3-15,40.5,30.3,20.3,32.0,19.6,7.8,83,64,46,29.31,28.99,12,4,21,0.02
2013-3-16,30.6,25.1,16.5,17.3,12.2,6.9,68,58,51,29.26,29.13,10,2,15,0.00
2013-3-17,32.0,23.5,15.8,17.8,11.4,1.4,77,60,42,29.61,29.25,11,2,16,0.01
2013-3-18,34.7,24.8,14.4,25.0,12.6,2.4,81,61,38,29.62,29.06,12,4,27,0.00
2013-3-19,38.8,31.9,24.4,33.8,23.6,13.1,86,72,50,29.12,28.98,14,3,30,0.15
2013-3-20,39.6,28.1,22.1,22.0,15.8,12.7,69,60,44,29.12,29.06,11,4,25,0.00
2013-3-21,35.6,25.3,16.7,20.1,13.6,7.5,77,62,38,29.11,29.00,9,3,15,0.00
2013-3-22,33.6,27.9,23.5,22.8,20.2,17.1,78,72,60,29.18,29.00,14,4,23,0.05
2013-3-23,39.7,32.0,27.7,24.2,20.6,18.1,78,63,48,29.37,29.16,15,5,24,0.00
2013-3-24,41.7,31.7,23.2,25.3,19.7,16.0,78,61,46,29.28,29.04,8,2,13,0.00
2013-3-25,43.0,34.7,29.5,27.0,22.6,18.9,73,61,50,29.04,28.90,9,3,15,0.00
2013-3-26,48.7,36.8,27.3,31.4,24.9,20.1,80,63,42,29.22,29.00,10,2,15,0.00
2013-3-27,48.9,36.9,29.3,34.7,27.2,21.0,85,68,48,29.34,29.19,11,4,16,0.01
2013-3-28,50.2,38.2,32.5,35.0,29.1,23.7,85,71,45,29.48,29.32,11,3,15,0.01
2013-3-29,51.6,41.0,35.1,34.1,28.3,21.2,77,62,41,29.49,29.41,43,3,119,0.00
2013-3-30,54.9,40.1,27.0,29.3,22.8,17.5,73,52,28,29.49,29.36,8,2,15,0.00
2013-3-31,57.2,42.4,32.5,40.4,29.4,18.2,87,62,35,29.36,28.94,11,3,21,0.11
2013-4-1,42.4,35.8,25.5,39.1,25.0,11.4,89,67,34,29.23,28.87,16,4,25,0.04
2013-4-2,36.5,28.1,22.6,26.2,17.7,11.6,77,65,50,29.37,29.22,13,5,23,0.00
2013-4-3,39.9,30.7,24.8,21.2,13.1,4.5,60,48,27,29.64,29.36,11,5,23,0.00
2013-4-4,60.8,37.8,20.1,25.0,16.0,-99.9,69,45,22,29.63,29.22,25,-9,98,0.00
2013-4-5,45.0,37.5,29.5,30.0,21.5,14.2,65,52,41,29.42,29.17,15,5,25,0.00
2013-4-6,51.3,32.8,21.3,23.3,7.7,-99.9,70,45,27,29.61,29.35,9,-81,13,0.00
2013-4-7,74.8,53.5,42.3,47.9,32.3,20.4,72,46,30,29.36,29.02,14,5,103,0.00
2013-4-8,63.3,47.4,38.5,44.7,36.1,-99.9,90,68,43,29.44,29.08,9,-12,99,0.00
2013-4-9,66.6,50.7,43.2,50.7,41.5,-99.9,98,76,49,29.43,29.06,15,-18,25,0.12
2013-4-10,45.9,42.5,38.7,45.0,42.0,38.1,99,98,97,29.36,29.17,10,2,15,0.50
2013-4-11,39.0,34.7,32.2,38.2,31.1,23.9,98,87,62,29.44,29.26,10,3,15,0.20
2013-4-12,52.3,40.3,33.3,48.2,38.0,32.4,99,92,71,29.27,28.87,14,4,23,0.57
2013-4-13,48.7,41.4,38.3,39.8,33.8,-99.9,90,76,56,29.24,29.08,11,-4,17,0.01
2013-4-14,48.4,38.6,16.0,32.9,26.5,-99.9,86,65,51,29.51,29.24,66,-12,98,0.00
2013-4-15,75.6,52.6,30.7,53.0,38.5,-99.9,79,61,41,29.50,29.34,9,0,18,0.06
2013-4-16,65.5,55.9,43.3,58.4,49.3,33.1,99,79,65,29.52,29.28,13,4,22,0.13
2013-4-17,57.9,45.1,33.1,40.5,33.1,-99.9,87,65,39,29.65,29.52,8,-1,14,0.01
2013-4-18,76.3,58.8,39.0,57.2,48.2,32.3,85,69,47,29.56,29.08,17,6,27,0.01
2013-4-19,74.5,58.4,41.2,62.1,50.3,31.9,95,75,59,29.08,28.71,15,6,27,0.06
2013-4-20,46.9,39.2,31.6,33.9,27.2,18.8,77,62,47,29.65,29.01,16,6,31,0.00
2013-4-21,49.3,35.6,26.6,33.8,20.5,5.3,74,55,27,29.94,29.65,11,2,15,0.00
2013-4-22,62.4,44.5,26.4,36.9,26.9,15.6,78,53,27,29.91,29.67,12,3,23,0.01
2013-4-23,64.6,50.0,34.3,42.2,34.4,25.2,70,56,38,29.67,29.29,9,4,19,0.00
2013-4-24,70.3,53.4,39.0,54.9,44.3,35.8,97,72,53,29.29,28.93,15,4,30,0.05
2013-4-25,62.1,45.3,31.5,40.2,34.0,26.5,95,68,29,29.61,29.26,9,3,17,0.04
2013-4-26,55.6,44.0,33.1,42.4,34.1,27.5,99,71,43,29.77,29.60,10,2,15,0.05
2013-4-27,72.9,52.0,33.6,47.0,35.6,27.1,85,57,28,29.75,29.55,8,2,10,0.00
2013-4-28,76.6,58.1,40.6,50.9,42.0,34.7,93,59,28,29.56,29.36,11,4,19,0.01
2013-4-29,67.8,55.8,49.1,55.2,50.3,47.2,96,82,62,29.40,29.32,12,4,22,0.01
2013-4-30,75.3,61.7,53.4,58.2,53.2,49.8,97,76,51,29.57,29.39,11,3,16,0.00
2013-5-1,79.8,64.9,53.4,52.2,45.0,34.2,85,54,22,29.69,29.56,9,2,17,0.00
2013-5-2,82.2,63.8,47.1,52.1,42.9,35.5,69,49,25,29.75,29.60,9,2,14,0.00
2013-5-3,80.4,65.1,47.7,53.7,46.0,29.1,80,52,32,29.64,29.55,8,2,15,0.00
2013-5-4,80.1,61.8,45.1,52.9,44.1,38.1,80,54,32,29.62,29.40,8,2,15,0.00
2013-5-5,81.0,63.5,46.2,52.7,44.7,39.8,83,54,25,29.53,29.42,7,2,15,0.00
2013-5-6,81.9,63.2,45.3,48.3,41.4,33.5,75,48,20,29.49,29.35,6,2,12,0.00
2013-5-7,85.1,65.8,50.4,58.2,52.0,38.5,91,63,34,29.45,29.34,8,2,12,0.00
2013-5-8,72.9,62.4,54.5,64.6,56.9,48.2,99,83,63,29.39,29.23,115,1,172,0.00
2013-5-9,73.2,61.1,50.4,63.1,57.0,49.9,99,88,62,29.27,29.08,8,1,13,0.00
2013-5-10,75.2,61.3,50.2,65.7,57.8,49.9,99,89,63,29.28,29.06,9,2,15,0.00
2013-5-11,63.5,55.9,45.1,99.9,52.1,41.2,99,87,65,29.09,28.98,24,2,66,0.00
2013-5-12,56.7,45.9,35.1,47.0,37.9,30.7,99,76,46,29.18,28.99,15,4,21,0.00
2013-5-13,54.7,42.4,34.9,39.1,33.4,29.1,96,71,45,29.41,29.18,10,3,20,0.00
2013-5-14,62.8,45.9,31.3,41.0,34.0,29.6,99,67,33,29.45,29.27,8,1,12,0.00
2013-5-15,83.1,58.8,41.0,65.0,47.2,33.9,94,68,43,29.27,28.83,12,3,27,0.00
2013-5-16,78.4,62.8,50.2,52.8,45.0,34.3,81,55,26,29.30,29.04,15,4,27,0.00
2013-5-17,68.7,54.5,40.3,48.4,42.0,37.5,98,66,34,29.53,29.31,8,2,12,0.00
2013-5-18,75.6,57.9,41.5,52.5,45.4,37.6,89,65,41,29.58,29.46,7,2,12,0.00
2013-5-19,81.0,66.2,55.0,64.7,57.4,50.4,90,75,54,29.47,29.33,9,3,16,0.00
2013-5-20,86.7,72.3,58.3,69.3,63.3,56.8,96,76,51,29.37,29.18,7,2,11,0.00
2013-5-21,86.7,70.7,61.0,74.9,65.5,58.3,98,84,60,29.24,29.06,12,2,23,0.00
2013-5-22,88.7,72.8,61.0,74.4,66.5,59.9,99,83,52,29.11,28.97,7,1,12,0.00
2013-5-23,79.5,67.3,46.8,67.7,61.3,46.3,99,82,60,29.16,29.02,9,2,21,0.00
2013-5-24,49.6,42.9,38.3,46.3,40.4,35.4,99,92,68,29.47,29.17,12,5,20,0.00
2013-5-25,58.8,48.9,39.7,41.0,37.7,35.1,87,67,44,29.50,29.41,15,5,23,0.00
2013-5-26,64.0,52.3,42.6,41.1,37.9,32.6,87,60,34,29.50,29.39,13,4,21,0.00
2013-5-27,71.6,56.1,41.4,45.7,39.7,32.4,87,58,30,29.57,29.43,9,2,14,0.00
2013-5-28,64.0,56.2,50.5,59.4,50.7,38.7,99,83,58,29.48,29.26,7,2,16,0.00
2013-5-29,83.5,70.0,57.6,73.7,64.2,57.3,99,84,57,29.33,29.22,8,2,16,0.00
2013-5-30,90.3,76.2,62.6,72.0,65.4,60.8,96,72,43,29.42,29.33,6,1,11,0.00
2013-5-31,94.3,78.3,64.4,71.2,66.4,61.4,92,69,43,29.39,29.25,6,1,11,0.00
2013-6-1,89.6,75.6,64.9,73.5,67.7,62.2,96,78,50,29.29,29.10,10,2,19,0.00
2013-6-2,80.4,70.0,56.7,70.7,64.8,52.8,99,85,55,29.17,29.01,9,3,19,0.00
2013-6-3,64.8,56.5,48.9,52.8,47.3,42.4,91,72,51,29.31,29.16,10,3,15,0.00
2013-6-4,67.6,56.1,44.8,46.6,43.3,35.7,96,66,35,29.46,29.31,10,3,16,0.00
2013-6-5,72.1,58.0,47.7,55.9,46.7,40.0,85,67,45,29.53,29.36,9,2,13,0.00
2013-6-6,57.2,55.0,52.0,56.9,52.5,45.8,99,92,74,29.42,29.16,6,2,14,0.00
2013-6-7,63.3,58.9,55.8,62.5,58.5,55.5,99,99,97,29.17,29.11,5,2,9,0.00
2013-6-8,65.7,58.8,55.2,63.1,57.8,54.4,99,97,87,29.40,29.11,6,1,11,0.00
2013-6-9,78.4,64.1,52.3,61.7,56.6,40.2,99,79,48,29.49,29.37,6,1,9,0.00
2013-6-10,69.1,63.1,57.6,65.2,60.6,55.5,98,92,76,29.43,29.02,6,2,12,0.00
2013-6-11,67.1,63.4,56.7,65.1,61.3,44.9,99,93,81,29.16,28.93,10,3,20,0.00
2013-6-12,78.0,64.4,51.7,60.9,56.3,51.3,98,77,47,29.23,29.08,6,2,11,0.00
2013-6-13,62.8,59.4,54.7,60.0,58.1,53.8,99,96,83,29.08,28.82,9,2,17,0.00
2013-6-14,74.7,62.9,51.8,61.6,56.8,51.3,99,82,56,29.25,29.07,8,1,17,0.00
2013-6-15,75.7,64.2,51.8,58.4,54.7,50.5,99,74,46,29.35,29.24,8,1,12,0.00
2013-6-16,76.1,65.2,58.6,70.4,60.7,54.1,98,86,75,29.25,28.99,6,1,11,0.00
2013-6-17,80.8,67.8,59.5,68.2,62.2,46.0,99,84,53,29.23,29.12,5,0,17,0.00
2013-6-18,70.0,61.4,55.6,59.7,52.9,47.8,99,76,48,29.32,29.19,3,0,16,0.00
2013-6-19,68.7,59.2,43.3,51.6,46.7,39.3,89,65,39,29.49,29.30,6,0,9,0.00
2013-6-20,79.0,60.9,45.1,59.0,48.3,41.1,98,67,33,29.56,29.49,8,1,13,0.00
2013-6-21,85.1,67.7,51.1,61.9,55.0,44.5,94,67,39,29.58,29.47,5,1,8,0.00
2013-6-22,88.3,74.7,60.3,74.6,66.5,55.3,94,77,51,29.48,29.32,7,1,11,0.00
2013-6-23,90.1,77.7,69.3,76.2,70.7,65.8,95,80,61,29.39,29.32,7,1,14,0.00
2013-6-24,90.5,77.9,68.0,74.3,68.3,62.6,95,74,48,29.34,29.26,10,2,19,0.00
2013-6-25,86.2,75.6,67.6,73.1,67.8,63.1,93,77,61,29.27,29.11,8,2,14,0.00
2013-6-26,87.8,74.0,67.1,74.5,68.9,65.3,97,85,55,29.14,29.09,8,1,13,0.00
2013-6-27,82.4,72.7,64.2,74.3,69.4,63.3,99,90,73,29.13,28.92,5,1,8,0.00
2013-6-28,67.4,64.7,61.2,66.8,64.0,60.6,99,98,93,28.92,28.80,5,1,12,0.00
2013-6-29,79.5,67.6,61.0,69.2,63.8,60.4,99,89,60,29.00,28.80,7,1,11,0.00
2013-6-30,80.5,70.0,61.2,70.2,64.4,48.4,99,84,64,29.28,28.99,8,1,13,0.00
2013-7-1,68.2,64.9,61.3,65.6,63.6,60.8,99,96,86,29.34,29.21,8,3,16,0.00
2013-7-2,81.7,67.5,60.6,74.5,65.4,60.2,99,93,76,29.41,29.32,10,1,13,0.00
2013-7-3,91.2,72.8,64.0,79.7,69.7,60.2,99,91,59,29.46,29.30,29,1,45,0.04
2013-7-4,88.9,75.5,68.2,80.7,72.2,67.9,99,91,58,29.48,29.41,7,1,10,0.01
2013-7-5,87.9,75.8,68.7,78.5,72.2,68.4,99,90,65,29.46,29.37,6,1,11,0.13
2013-7-6,93.0,77.2,67.1,74.4,69.8,66.7,99,81,50,29.49,29.35,5,1,7,0.00
2013-7-7,88.3,76.9,69.3,76.6,70.7,66.0,97,82,56,29.39,29.26,5,1,13,0.08
2013-7-8,85.6,73.8,68.0,76.3,69.6,59.9,98,88,65,29.39,29.31,4,1,8,0.18
2013-7-9,88.0,74.9,68.1,76.4,71.0,67.0,99,89,62,29.39,29.25,4,0,7,0.07
2013-7-10,89.1,77.3,70.2,76.5,71.0,63.5,97,82,63,29.25,29.05,7,2,15,0.12
2013-7-11,72.3,69.5,63.8,65.0,61.4,57.4,81,75,67,29.21,29.15,7,3,15,0.00
2013-7-15,90.1,78.9,69.4,76.8,70.2,64.6,95,76,48,29.62,29.55,7,1,11,0.00
2013-7-16,85.2,71.7,67.5,72.9,66.6,58.4,92,84,66,29.69,29.55,3,0,8,0.00
2013-7-26,83.3,61.2,59.2,74.1,55.2,54.0,83,81,74,29.34,29.33,1,0,2,0.00
2013-7-27,83.3,68.1,56.8,70.2,62.7,53.8,96,84,59,29.33,29.16,6,1,12,0.13
2013-7-28,78.4,68.3,59.5,70.2,64.0,57.6,97,87,66,29.30,29.14,7,1,16,0.25
2013-7-29,75.4,63.4,55.2,62.6,58.2,54.4,98,85,57,29.45,29.30,6,1,10,0.04
2013-7-30,78.8,65.9,55.4,64.6,59.1,54.3,97,80,57,29.52,29.35,6,1,10,0.00
2013-7-31,85.5,68.9,56.3,67.5,60.8,55.2,98,78,46,29.48,29.26,4,1,8,0.00
2013-8-1,79.5,68.7,62.1,72.2,63.4,59.1,96,84,62,29.25,29.09,8,1,16,0.43
2013-8-2,81.3,67.1,58.8,67.6,61.6,58.1,98,84,54,29.20,29.13,7,1,12,0.08
2013-8-3,77.7,67.3,59.5,65.1,59.3,53.7,98,78,44,29.22,29.11,7,1,15,0.22
2013-8-4,72.0,63.5,55.2,61.2,55.4,51.1,96,76,55,29.33,29.21,9,2,17,0.00
2013-8-5,79.7,63.2,50.5,60.6,54.4,48.6,95,75,45,29.41,29.32,5,1,8,0.00
2013-8-6,84.2,66.5,52.9,65.1,57.7,51.4,95,76,46,29.36,29.30,4,1,9,0.00
2013-8-7,81.3,71.3,62.6,69.3,63.6,58.3,89,77,63,29.31,29.20,8,3,14,0.00
2013-8-8,87.8,72.9,65.8,74.1,68.1,62.9,96,86,59,29.32,29.21,6,1,12,0.01
2013-8-9,79.6,69.1,61.7,73.0,66.9,59.8,97,93,74,29.27,29.15,4,0,10,0.00
2013-8-10,75.9,64.9,55.4,61.7,57.1,50.6,98,78,50,29.39,29.22,10,2,15,0.00
2013-8-11,79.3,64.5,52.2,62.5,56.3,50.9,97,77,49,29.44,29.34,5,1,9,0.00
2013-8-12,81.1,68.0,59.2,66.3,61.1,55.9,93,80,52,29.35,29.16,4,0,6,0.00
2013-8-13,77.5,66.4,58.1,70.1,60.6,49.5,97,82,63,29.16,29.03,8,2,17,0.01
2013-8-14,70.9,59.8,52.5,57.2,51.5,47.9,94,75,49,29.37,29.13,9,3,17,0.00
2013-8-15,76.6,61.4,49.5,59.1,52.5,47.4,95,75,49,29.44,29.36,7,1,11,0.00
2013-8-16,83.3,65.1,52.5,64.0,55.5,50.4,95,74,46,29.51,29.40,4,1,7,0.00
2013-8-17,85.5,66.9,54.1,66.2,58.9,53.2,98,78,47,29.59,29.50,4,0,7,0.00
2013-8-18,85.6,69.7,58.8,67.9,61.3,56.3,94,77,47,29.56,29.41,4,0,5,0.00
2013-8-19,85.8,70.4,59.7,66.8,62.0,58.0,95,77,45,29.43,29.33,5,1,8,0.00
2013-8-20,86.9,71.1,59.2,68.8,62.0,57.2,95,76,47,29.44,29.35,7,1,10,0.00
2013-8-21,90.1,73.3,59.9,71.9,64.1,57.9,95,75,49,29.46,29.32,5,1,8,0.00
2013-8-22,88.3,72.2,62.2,72.7,66.4,59.8,95,83,55,29.33,29.17,10,1,17,0.00
2013-8-23,75.6,66.6,55.4,62.4,57.5,52.8,92,73,55,29.51,29.26,9,2,14,0.00
2013-8-24,81.0,64.0,52.0,62.1,55.3,51.2,98,77,43,29.66,29.51,6,1,8,0.00
2013-8-25,86.1,67.8,53.6,66.2,58.7,48.2,97,75,45,29.64,29.43,4,1,9,0.00
2013-8-26,78.6,69.0,63.9,72.6,65.7,59.4,97,90,76,29.46,29.22,6,1,11,0.00
2013-8-27,88.0,73.3,66.0,75.2,69.5,65.6,99,89,62,29.24,29.17,4,0,7,0.00
2013-8-28,88.2,74.9,66.7,75.0,69.3,65.7,97,84,62,29.24,29.14,6,1,11,0.00
2013-8-29,84.7,72.7,64.8,73.8,67.9,63.4,99,86,64,29.33,29.24,7,1,11,0.00
2013-8-30,90.5,74.0,60.4,73.7,67.1,60.1,99,81,53,29.32,29.08,4,0,6,0.00
2013-8-31,83.3,73.9,69.4,74.4,69.7,67.0,96,87,71,29.17,29.03,7,1,11,0.00
2013-9-1,86.9,73.8,66.9,72.1,68.6,65.7,97,85,55,29.16,29.06,6,1,14,0.01
2013-9-2,85.7,72.4,62.1,75.4,68.0,57.3,97,87,66,29.10,28.96,9,2,15,0.02
2013-9-3,70.3,63.3,57.9,60.2,57.9,55.8,93,83,67,29.24,29.08,8,1,12,0.00
2013-9-4,81.0,66.3,52.7,62.4,57.1,51.6,97,75,43,29.29,29.24,7,2,15,0.01
2013-9-5,68.9,59.7,46.6,62.7,49.7,41.1,93,71,45,29.52,29.26,11,2,17,0.01
2013-9-6,75.2,56.9,43.3,53.3,46.8,41.0,93,72,42,29.59,29.41,4,1,8,0.00
2013-9-7,67.8,59.2,50.7,62.3,55.2,48.3,95,87,76,29.41,29.15,4,0,9,0.00
2013-9-8,68.4,61.1,48.0,62.4,52.3,44.1,96,75,46,29.42,29.14,12,2,19,0.08
2013-9-9,80.8,60.6,44.2,62.0,52.3,43.2,96,77,46,29.48,29.27,7,1,14,0.00
2013-9-10,94.1,76.5,64.0,77.8,69.2,58.9,92,79,56,29.32,29.21,8,2,15,0.18
2013-9-11,94.8,81.4,71.6,76.7,72.1,64.7,91,75,51,29.35,29.20,6,2,15,0.00
2013-9-12,75.9,69.0,59.7,70.5,65.2,58.8,97,88,77,29.24,29.01,8,1,14,0.11
2013-9-13,60.1,54.9,50.2,59.3,53.2,48.5,98,94,85,29.31,29.02,8,2,15,0.18
2013-9-14,66.2,52.4,43.3,51.3,46.9,41.5,95,83,52,29.42,29.29,5,1,10,0.04
2013-9-15,72.0,56.1,43.5,55.4,49.7,41.9,97,81,51,29.47,29.32,7,1,15,0.01
2013-9-16,54.0,50.4,42.6,53.1,48.4,41.5,98,93,81,29.68,29.36,8,1,13,0.15
2013-9-17,71.1,49.2,37.0,49.5,37.5,-99.9,99,75,40,29.79,29.60,5,-39,8,0.00
2013-9-18,82.2,57.8,41.7,56.5,48.2,40.4,96,74,38,29.60,29.38,4,1,12,0.00
2013-9-19,85.1,63.5,48.2,61.9,53.3,45.4,94,73,43,29.43,29.30,4,1,8,0.00
2013-9-20,85.3,68.1,53.6,66.0,58.8,51.6,96,75,47,29.32,29.11,8,2,12,0.00
2013-11-3,68.7,28.4,25.7,58.9,20.3,18.3,73,71,70,29.83,29.12,3,1,6,0.00
2013-11-4,53.4,33.7,23.4,39.5,20.9,16.9,84,61,38,29.94,29.61,8,2,13,0.00
2013-11-5,55.9,44.3,32.7,35.3,28.2,19.3,65,53,40,29.79,29.65,7,2,14,0.00
2013-11-6,63.4,53.8,43.7,49.9,42.7,34.7,79,66,52,29.65,29.12,10,4,20,0.00
2013-11-7,57.2,44.1,36.3,51.9,37.9,27.3,91,79,63,29.27,29.09,15,3,21,0.14
2013-11-8,53.4,37.3,32.9,45.8,27.5,23.0,84,68,54,29.52,29.23,11,3,22,0.00
2013-11-9,50.4,41.2,33.4,38.5,29.1,24.0,75,62,53,29.52,29.09,9,2,15,0.27
2013-11-10,50.5,43.5,39.0,38.9,34.4,29.0,87,71,60,29.43,29.08,18,6,34,0.05
2013-11-11,46.2,37.7,28.9,35.2,29.5,24.4,88,73,52,29.45,29.22,14,4,23,0.18
2013-11-12,33.6,27.6,24.6,25.6,19.6,16.1,87,72,57,29.66,29.39,15,5,21,0.01
2013-11-13,39.6,30.4,19.2,24.4,17.0,8.0,76,57,47,29.71,29.38,11,5,23,0.00
2013-11-14,53.4,41.9,31.7,27.7,16.4,9.1,55,37,23,29.42,29.24,13,4,21,0.00
2013-11-15,53.2,47.0,40.8,23.5,18.3,12.4,44,32,26,29.44,29.34,9,2,15,0.00
2013-11-16,61.3,50.3,41.9,38.5,31.5,20.6,67,49,33,29.57,29.38,8,2,14,0.02
2013-11-17,59.4,53.9,49.0,52.3,47.2,38.5,88,78,67,29.38,28.71,16,6,36,0.37
2013-11-18,59.4,47.5,36.5,52.0,35.1,23.1,83,62,45,29.16,28.69,18,8,40,1.24
2013-11-19,36.7,34.3,28.8,26.8,22.4,18.5,72,62,52,29.74,29.16,16,6,30,0.46
2013-11-20,37.9,29.9,22.1,18.7,15.9,12.0,68,56,37,29.90,29.74,8,2,12,0.00
2013-11-21,45.9,37.7,29.1,34.5,22.3,11.9,83,54,42,29.79,29.58,8,3,14,0.04
2013-11-22,47.7,41.6,33.2,45.5,38.4,25.4,93,88,72,29.58,29.27,16,3,30,0.30
2013-11-23,38.7,28.5,18.0,25.8,18.7,2.1,80,67,47,29.46,29.26,18,7,31,1.54
2013-11-24,24.3,17.9,15.6,17.0,4.7,-99.9,79,65,49,29.66,29.39,14,-41,21,1.88
2013-11-25,36.1,27.1,15.8,17.6,9.6,1.6,69,50,23,29.67,29.41,11,3,16,0.01
2013-11-26,37.6,33.2,31.6,28.6,24.4,17.8,87,71,53,29.46,29.12,8,2,15,0.00
2013-11-27,33.3,29.9,21.6,30.1,25.6,14.6,88,84,73,29.14,28.88,17,3,26,0.01
2013-11-28,32.7,23.2,18.3,17.1,12.5,8.9,79,64,47,29.72,29.15,13,3,22,0.00
2013-11-29,32.0,22.6,14.7,24.2,11.4,4.5,80,63,44,30.03,29.72,8,2,14,0.00
2013-11-30,30.9,22.9,10.4,18.6,12.1,2.9,74,64,49,30.02,29.52,11,4,20,0.04
2013-12-1,39.0,32.7,27.9,29.9,23.9,16.4,86,70,59,29.52,29.27,7,2,11,0.02
2013-12-2,42.1,36.2,33.1,33.9,30.2,27.8,85,79,65,29.28,29.16,4,1,5,0.00
2013-12-3,43.0,34.0,28.6,32.5,26.4,23.5,85,74,53,29.32,29.21,4,1,7,0.00
2013-12-4,47.8,37.8,29.1,37.6,31.8,23.7,87,79,65,29.35,29.25,9,3,16,0.01
2013-12-5,58.1,49.9,41.4,50.2,42.4,32.5,84,76,61,29.31,29.07,16,5,22,0.14
2013-12-6,41.2,33.6,30.2,33.2,25.8,20.9,84,73,62,29.53,29.30,7,2,125,0.02
2013-12-7,34.2,28.2,24.4,23.7,15.7,8.3,77,60,43,29.83,29.51,11,4,20,0.00
2013-12-8,28.9,24.2,17.6,19.1,10.1,5.4,78,55,41,29.87,29.53,11,3,17,0.01
2013-12-9,41.0,33.6,24.8,34.2,25.4,18.6,81,71,61,29.54,29.15,15,5,23,0.08
2013-12-10,33.6,25.5,18.5,21.9,12.3,3.0,78,57,45,29.34,29.19,12,5,21,0.00
2013-12-11,26.8,20.9,13.5,15.7,8.2,1.7,75,58,46,29.55,29.34,11,4,17,0.00
2013-12-12,24.7,16.3,10.5,7.2,3.9,-1.1,71,58,41,29.60,29.32,12,4,21,0.00
2013-12-13,24.3,18.2,12.2,16.0,8.6,3.5,78,66,50,29.69,29.29,13,5,24,0.02
2013-12-14,22.3,12.0,6.1,17.1,2.9,-8.3,80,66,49,29.74,29.06,11,3,17,0.00
2013-12-15,25.6,20.6,15.4,17.9,13.2,3.8,80,73,52,29.11,28.90,12,4,23,0.00
2013-12-16,25.9,15.6,7.0,12.6,4.8,-2.3,70,62,47,29.48,29.11,13,3,21,0.00
2013-12-17,27.5,18.2,5.0,20.0,10.4,-4.2,77,71,65,29.45,29.20,6,2,9,0.00
2013-12-18,34.2,28.0,22.5,20.6,18.0,16.0,79,66,52,29.36,29.21,10,3,18,0.00
2013-12-19,45.7,35.4,25.0,29.4,22.3,12.5,71,59,46,29.35,29.20,11,2,17,0.00
2013-12-20,44.2,40.8,34.9,39.7,34.7,26.1,89,79,66,29.32,29.09,5,1,8,0.00
2013-12-21,52.7,41.6,31.5,48.9,38.6,28.6,93,89,83,29.19,29.06,11,3,17,0.02
2013-12-22,43.5,35.1,30.6,41.6,32.2,27.7,95,89,84,29.27,28.88,13,2,130,0.02
2013-12-23,40.8,35.6,27.0,37.0,30.2,19.5,87,81,61,29.55,29.26,11,3,17,0.00
2013-12-24,27.0,19.9,10.6,19.5,12.6,1.1,80,73,61,29.74,29.50,13,4,20,0.00
2013-12-25,23.9,14.1,3.2,10.1,2.6,-5.2,71,60,50,29.82,29.52,9,3,15,0.00
2013-12-26,36.0,27.1,23.7,26.4,15.6,9.5,83,62,54,29.55,29.34,11,4,18,0.05
2013-12-27,32.7,27.1,20.7,24.0,17.6,8.2,76,67,55,29.57,29.40,8,2,14,0.05
2013-12-28,45.0,37.1,28.4,32.7,27.1,21.4,75,67,58,29.40,29.25,10,2,98,0.01
2013-12-29,45.0,39.5,31.7,37.0,31.1,26.4,91,73,55,29.25,28.93,14,2,23,0.01
2013-12-30,31.6,18.7,12.4,26.7,8.6,1.4,84,64,53,29.50,29.02,12,2,17,0.00
2013-12-31,25.5,17.8,13.8,13.7,4.4,-3.5,71,56,42,29.51,29.24,15,5,27,0.01
2014-1-1,22.8,16.7,12.4,7.0,3.1,-0.2,69,55,45,29.67,29.50,10,3,17,0.00
2014-1-2,14.0,9.7,5.5,5.7,0.9,-3.6,71,67,64,29.59,29.23,13,4,23,0.26